sensor_id;sensor_type;location;lat;lon;timestamp;pressure;altitude;pressure_sealevel;temperature;humidity
63395;BME280;49531;-34.520;150.798;2023-03-02T00:01:22;100506.47;;;24.71;63.72
63395;BME280;49531;-34.520;150.798;2023-03-02T00:03:50;100488.66;;;24.74;64.12
63395;BME280;49531;-34.520;150.798;2023-03-02T00:06:17;100493.25;;;24.78;63.83
63395;BME280;49531;-34.520;150.798;2023-03-02T00:08:45;100488.78;;;24.82;64.01
63395;BME280;49531;-34.520;150.798;2023-03-02T00:11:13;100490.66;;;24.87;63.84
63395;BME280;49531;-34.520;150.798;2023-03-02T00:13:41;100493.00;;;24.93;63.90
63395;BME280;49531;-34.520;150.798;2023-03-02T00:16:09;100491.66;;;24.96;63.72
63395;BME280;49531;-34.520;150.798;2023-03-02T00:18:36;100484.78;;;24.99;63.47
63395;BME280;49531;-34.520;150.798;2023-03-02T00:21:03;100485.00;;;25.02;63.63
63395;BME280;49531;-34.520;150.798;2023-03-02T00:23:36;100481.69;;;25.05;63.51
63395;BME280;49531;-34.520;150.798;2023-03-02T00:26:04;100487.66;;;25.07;63.33
63395;BME280;49531;-34.520;150.798;2023-03-02T00:28:32;100476.13;;;25.10;62.88
63395;BME280;49531;-34.520;150.798;2023-03-02T00:31:04;100479.38;;;25.12;63.16
63395;BME280;49531;-34.520;150.798;2023-03-02T00:33:32;100470.00;;;25.18;62.99
63395;BME280;49531;-34.520;150.798;2023-03-02T00:36:00;100483.84;;;25.22;63.00
63395;BME280;49531;-34.520;150.798;2023-03-02T00:38:28;100473.13;;;25.25;62.95
63395;BME280;49531;-34.520;150.798;2023-03-02T00:40:55;100470.91;;;25.27;62.88
63395;BME280;49531;-34.520;150.798;2023-03-02T00:43:22;100466.47;;;25.32;62.52
63395;BME280;49531;-34.520;150.798;2023-03-02T00:45:53;100459.31;;;25.36;62.56
63395;BME280;49531;-34.520;150.798;2023-03-02T00:48:21;100458.41;;;25.40;62.13
63395;BME280;49531;-34.520;150.798;2023-03-02T00:50:48;100452.34;;;25.43;62.44
63395;BME280;49531;-34.520;150.798;2023-03-02T00:53:15;100458.31;;;25.45;61.90
63395;BME280;49531;-34.520;150.798;2023-03-02T00:55:52;100443.25;;;25.48;61.84
63395;BME280;49531;-34.520;150.798;2023-03-02T00:58:19;100450.53;;;25.52;61.65
63395;BME280;49531;-34.520;150.798;2023-03-02T01:00:47;100446.41;;;25.55;61.43
63395;BME280;49531;-34.520;150.798;2023-03-02T01:03:15;100441.13;;;25.58;61.65
63395;BME280;49531;-34.520;150.798;2023-03-02T01:05:42;100429.88;;;25.60;61.65
63395;BME280;49531;-34.520;150.798;2023-03-02T01:08:09;100445.13;;;25.66;61.83
63395;BME280;49531;-34.520;150.798;2023-03-02T01:10:36;100435.50;;;25.69;61.43
63395;BME280;49531;-34.520;150.798;2023-03-02T01:13:04;100436.50;;;25.73;61.45
63395;BME280;49531;-34.520;150.798;2023-03-02T01:15:32;100424.97;;;25.76;61.49
63395;BME280;49531;-34.520;150.798;2023-03-02T01:18:00;100424.66;;;25.77;61.69
63395;BME280;49531;-34.520;150.798;2023-03-02T01:20:27;100414.22;;;25.79;61.22
63395;BME280;49531;-34.520;150.798;2023-03-02T01:22:54;100417.69;;;25.85;61.44
63395;BME280;49531;-34.520;150.798;2023-03-02T01:25:22;100409.16;;;25.86;61.51
63395;BME280;49531;-34.520;150.798;2023-03-02T01:27:49;100416.78;;;25.89;60.97
63395;BME280;49531;-34.520;150.798;2023-03-02T01:30:17;100402.78;;;25.91;60.73
63395;BME280;49531;-34.520;150.798;2023-03-02T01:32:44;100404.91;;;25.94;60.76
63395;BME280;49531;-34.520;150.798;2023-03-02T01:35:12;100390.94;;;25.96;60.82
63395;BME280;49531;-34.520;150.798;2023-03-02T01:37:39;100407.22;;;26.01;60.72
63395;BME280;49531;-34.520;150.798;2023-03-02T01:40:08;100397.59;;;26.03;60.47
63395;BME280;49531;-34.520;150.798;2023-03-02T01:42:38;100392.13;;;26.03;60.31
63395;BME280;49531;-34.520;150.798;2023-03-02T01:48:04;100387.34;;;26.09;60.23
63395;BME280;49531;-34.520;150.798;2023-03-02T01:50:31;100384.31;;;26.10;60.20
63395;BME280;49531;-34.520;150.798;2023-03-02T01:52:58;100373.06;;;26.12;60.44
63395;BME280;49531;-34.520;150.798;2023-03-02T01:55:29;100372.44;;;26.15;60.24
63395;BME280;49531;-34.520;150.798;2023-03-02T01:57:58;100367.47;;;26.17;60.01
63395;BME280;49531;-34.520;150.798;2023-03-02T02:00:28;100371.81;;;26.18;60.22
63395;BME280;49531;-34.520;150.798;2023-03-02T02:02:59;100376.19;;;26.19;60.16
63395;BME280;49531;-34.520;150.798;2023-03-02T02:05:38;100373.94;;;26.21;60.44
63395;BME280;49531;-34.520;150.798;2023-03-02T02:08:07;100370.91;;;26.22;59.93
63395;BME280;49531;-34.520;150.798;2023-03-02T02:10:34;100366.75;;;26.25;60.10
63395;BME280;49531;-34.520;150.798;2023-03-02T02:13:02;100359.03;;;26.27;59.99
63395;BME280;49531;-34.520;150.798;2023-03-02T02:15:29;100360.66;;;26.28;59.95
63395;BME280;49531;-34.520;150.798;2023-03-02T02:17:56;100357.91;;;26.28;60.01
63395;BME280;49531;-34.520;150.798;2023-03-02T02:20:32;100361.69;;;26.32;60.23
63395;BME280;49531;-34.520;150.798;2023-03-02T02:23:23;100366.06;;;26.33;60.16
63395;BME280;49531;-34.520;150.798;2023-03-02T02:26:16;100356.72;;;26.34;60.08
63395;BME280;49531;-34.520;150.798;2023-03-02T02:29:04;100368.19;;;26.36;60.20
63395;BME280;49531;-34.520;150.798;2023-03-02T02:31:38;100345.16;;;26.37;60.05
63395;BME280;49531;-34.520;150.798;2023-03-02T02:34:19;100351.09;;;26.39;60.13
63395;BME280;49531;-34.520;150.798;2023-03-02T02:36:53;100354.34;;;26.41;59.67
63395;BME280;49531;-34.520;150.798;2023-03-02T02:39:28;100347.44;;;26.44;59.99
63395;BME280;49531;-34.520;150.798;2023-03-02T02:41:58;100327.78;;;26.42;59.95
63395;BME280;49531;-34.520;150.798;2023-03-02T02:44:26;100342.47;;;26.46;60.07
63395;BME280;49531;-34.520;150.798;2023-03-02T02:46:53;100335.06;;;26.46;59.91
63395;BME280;49531;-34.520;150.798;2023-03-02T02:49:38;100352.50;;;26.50;59.92
63395;BME280;49531;-34.520;150.798;2023-03-02T02:52:09;100334.94;;;26.51;60.12
63395;BME280;49531;-34.520;150.798;2023-03-02T02:54:37;100338.81;;;26.50;60.04
63395;BME280;49531;-34.520;150.798;2023-03-02T02:57:05;100344.47;;;26.54;60.33
63395;BME280;49531;-34.520;150.798;2023-03-02T02:59:35;100340.63;;;26.55;60.03
63395;BME280;49531;-34.520;150.798;2023-03-02T03:02:05;100341.13;;;26.57;59.95
63395;BME280;49531;-34.520;150.798;2023-03-02T03:04:32;100334.50;;;26.58;60.26
63395;BME280;49531;-34.520;150.798;2023-03-02T03:07:05;100334.19;;;26.60;60.10
63395;BME280;49531;-34.520;150.798;2023-03-02T03:09:32;100342.13;;;26.61;60.06
63395;BME280;49531;-34.520;150.798;2023-03-02T03:12:15;100346.47;;;26.62;59.94
63395;BME280;49531;-34.520;150.798;2023-03-02T03:14:43;100345.03;;;26.65;60.07
63395;BME280;49531;-34.520;150.798;2023-03-02T03:17:11;100331.34;;;26.65;59.92
63395;BME280;49531;-34.520;150.798;2023-03-02T03:19:40;100330.22;;;26.66;60.00
63395;BME280;49531;-34.520;150.798;2023-03-02T03:22:08;100332.97;;;26.66;59.76
63395;BME280;49531;-34.520;150.798;2023-03-02T03:24:37;100323.31;;;26.68;59.90
63395;BME280;49531;-34.520;150.798;2023-03-02T03:27:07;100321.38;;;26.69;59.90
63395;BME280;49531;-34.520;150.798;2023-03-02T03:29:36;100323.50;;;26.72;59.85
63395;BME280;49531;-34.520;150.798;2023-03-02T03:32:04;100314.97;;;26.73;59.83
63395;BME280;49531;-34.520;150.798;2023-03-02T03:34:33;100308.69;;;26.73;59.89
63395;BME280;49531;-34.520;150.798;2023-03-02T03:37:08;100304.81;;;26.74;59.77
63395;BME280;49531;-34.520;150.798;2023-03-02T03:39:35;100300.97;;;26.75;59.83
63395;BME280;49531;-34.520;150.798;2023-03-02T03:42:03;100294.38;;;26.76;59.76
63395;BME280;49531;-34.520;150.798;2023-03-02T03:44:30;100294.84;;;26.78;59.93
63395;BME280;49531;-34.520;150.798;2023-03-02T03:46:57;100289.38;;;26.78;59.76
63395;BME280;49531;-34.520;150.798;2023-03-02T03:49:25;100285.50;;;26.79;59.72
63395;BME280;49531;-34.520;150.798;2023-03-02T03:51:52;100284.72;;;26.78;59.81
63395;BME280;49531;-34.520;150.798;2023-03-02T03:54:20;100294.19;;;26.81;59.92
63395;BME280;49531;-34.520;150.798;2023-03-02T03:56:48;100282.13;;;26.82;60.13
63395;BME280;49531;-34.520;150.798;2023-03-02T03:59:19;100291.16;;;26.82;59.94
63395;BME280;49531;-34.520;150.798;2023-03-02T04:01:51;100295.50;;;26.83;59.99
63395;BME280;49531;-34.520;150.798;2023-03-02T04:04:23;100277.63;;;26.86;59.99
63395;BME280;49531;-34.520;150.798;2023-03-02T04:06:52;100275.69;;;26.86;59.85
63395;BME280;49531;-34.520;150.798;2023-03-02T04:09:21;100282.00;;;26.87;60.04
63395;BME280;49531;-34.520;150.798;2023-03-02T04:11:50;100262.00;;;26.86;59.87
63395;BME280;49531;-34.520;150.798;2023-03-02T04:14:18;100270.72;;;26.88;59.95
63395;BME280;49531;-34.520;150.798;2023-03-02T04:16:46;100272.66;;;26.88;59.85
63395;BME280;49531;-34.520;150.798;2023-03-02T04:19:14;100274.28;;;26.89;60.09
63395;BME280;49531;-34.520;150.798;2023-03-02T04:21:46;100263.31;;;26.89;59.60
63395;BME280;49531;-34.520;150.798;2023-03-02T04:24:18;100263.00;;;26.90;59.58
63395;BME280;49531;-34.520;150.798;2023-03-02T04:26:46;100259.44;;;26.90;59.12
63395;BME280;49531;-34.520;150.798;2023-03-02T04:29:14;100258.31;;;26.91;59.07
63395;BME280;49531;-34.520;150.798;2023-03-02T04:31:43;100254.78;;;26.90;59.05
63395;BME280;49531;-34.520;150.798;2023-03-02T04:34:10;100257.50;;;26.90;59.02
63395;BME280;49531;-34.520;150.798;2023-03-02T04:36:39;100250.41;;;26.89;59.06
63395;BME280;49531;-34.520;150.798;2023-03-02T04:39:07;100261.38;;;26.89;59.09
63395;BME280;49531;-34.520;150.798;2023-03-02T04:41:34;100258.63;;;26.89;59.10
63395;BME280;49531;-34.520;150.798;2023-03-02T04:44:02;100257.00;;;26.88;58.96
63395;BME280;49531;-34.520;150.798;2023-03-02T04:46:29;100266.03;;;26.89;58.94
63395;BME280;49531;-34.520;150.798;2023-03-02T04:48:56;100256.19;;;26.88;58.82
63395;BME280;49531;-34.520;150.798;2023-03-02T04:51:28;100249.09;;;26.87;58.92
63395;BME280;49531;-34.520;150.798;2023-03-02T04:53:59;100245.88;;;26.85;58.52
63395;BME280;49531;-34.520;150.798;2023-03-02T04:56:27;100250.22;;;26.86;58.49
63395;BME280;49531;-34.520;150.798;2023-03-02T04:58:55;100240.38;;;26.85;58.47
63395;BME280;49531;-34.520;150.798;2023-03-02T05:01:24;100243.13;;;26.85;58.43
63395;BME280;49531;-34.520;150.798;2023-03-02T05:03:51;100244.75;;;26.86;58.31
63395;BME280;49531;-34.520;150.798;2023-03-02T05:06:20;100242.00;;;26.86;58.34
63395;BME280;49531;-34.520;150.798;2023-03-02T05:08:50;100240.38;;;26.85;58.58
63395;BME280;49531;-34.520;150.798;2023-03-02T05:11:18;100240.38;;;26.85;58.21
63395;BME280;49531;-34.520;150.798;2023-03-02T05:13:50;100236.84;;;26.84;58.38
63395;BME280;49531;-34.520;150.798;2023-03-02T05:16:18;100245.03;;;26.76;58.08
63395;BME280;49531;-34.520;150.798;2023-03-02T05:18:46;100244.19;;;26.67;58.34
63395;BME280;49531;-34.520;150.798;2023-03-02T05:21:14;100243.19;;;26.63;58.54
63395;BME280;49531;-34.520;150.798;2023-03-02T05:23:42;100237.34;;;26.55;58.54
63395;BME280;49531;-34.520;150.798;2023-03-02T05:26:09;100234.91;;;26.54;58.47
63395;BME280;49531;-34.520;150.798;2023-03-02T05:28:37;100240.56;;;26.57;58.89
63395;BME280;49531;-34.520;150.798;2023-03-02T05:31:04;100236.72;;;26.58;58.84
63395;BME280;49531;-34.520;150.798;2023-03-02T05:33:31;100233.47;;;26.56;59.12
63395;BME280;49531;-34.520;150.798;2023-03-02T05:35:59;100226.50;;;26.50;59.37
63395;BME280;49531;-34.520;150.798;2023-03-02T05:38:26;100222.75;;;26.46;59.08
63395;BME280;49531;-34.520;150.798;2023-03-02T05:40:56;100227.13;;;26.47;59.20
63395;BME280;49531;-34.520;150.798;2023-03-02T05:43:24;100224.38;;;26.47;59.16
63395;BME280;49531;-34.520;150.798;2023-03-02T05:45:51;100223.53;;;26.38;59.27
63395;BME280;49531;-34.520;150.798;2023-03-02T05:48:20;100223.53;;;26.38;59.36
63395;BME280;49531;-34.520;150.798;2023-03-02T05:50:47;100225.63;;;26.41;59.36
63395;BME280;49531;-34.520;150.798;2023-03-02T05:53:14;100217.91;;;26.43;59.40
63395;BME280;49531;-34.520;150.798;2023-03-02T05:55:41;100214.06;;;26.44;59.33
63395;BME280;49531;-34.520;150.798;2023-03-02T05:58:11;100214.56;;;26.46;59.40
63395;BME280;49531;-34.520;150.798;2023-03-02T06:00:40;100216.47;;;26.46;59.28
63395;BME280;49531;-34.520;150.798;2023-03-02T06:03:07;100208.88;;;26.43;59.22
63395;BME280;49531;-34.520;150.798;2023-03-02T06:05:35;100209.97;;;26.33;59.36
63395;BME280;49531;-34.520;150.798;2023-03-02T06:08:03;100206.84;;;26.26;59.75
63395;BME280;49531;-34.520;150.798;2023-03-02T06:10:31;100213.94;;;26.27;59.66
63395;BME280;49531;-34.520;150.798;2023-03-02T06:12:58;100206.84;;;26.26;60.23
63395;BME280;49531;-34.520;150.798;2023-03-02T06:15:26;100197.81;;;26.25;60.16
63395;BME280;49531;-34.520;150.798;2023-03-02T06:17:56;100199.25;;;26.23;60.20
63395;BME280;49531;-34.520;150.798;2023-03-02T06:20:23;100205.03;;;26.21;60.23
63395;BME280;49531;-34.520;150.798;2023-03-02T06:22:50;100194.88;;;26.22;60.42
63395;BME280;49531;-34.520;150.798;2023-03-02T06:25:20;100203.91;;;26.22;60.93
63395;BME280;49531;-34.520;150.798;2023-03-02T06:27:48;100202.78;;;26.23;60.57
63395;BME280;49531;-34.520;150.798;2023-03-02T06:30:19;100210.50;;;26.21;60.43
63395;BME280;49531;-34.520;150.798;2023-03-02T06:32:46;100209.69;;;26.21;60.17
63395;BME280;49531;-34.520;150.798;2023-03-02T06:35:14;100206.56;;;26.14;59.62
63395;BME280;49531;-34.520;150.798;2023-03-02T06:37:42;100211.84;;;26.10;59.90
63395;BME280;49531;-34.520;150.798;2023-03-02T06:40:10;100198.16;;;26.10;59.79
63395;BME280;49531;-34.520;150.798;2023-03-02T06:42:40;100202.34;;;26.08;60.18
63395;BME280;49531;-34.520;150.798;2023-03-02T06:45:07;100207.44;;;26.01;59.73
63395;BME280;49531;-34.520;150.798;2023-03-02T06:47:35;100208.88;;;25.98;59.83
63395;BME280;49531;-34.520;150.798;2023-03-02T06:50:04;100206.75;;;25.95;59.95
63395;BME280;49531;-34.520;150.798;2023-03-02T06:52:32;100210.50;;;25.99;59.46
63395;BME280;49531;-34.520;150.798;2023-03-02T06:55:00;100202.91;;;25.96;59.93
63395;BME280;49531;-34.520;150.798;2023-03-02T06:57:27;100205.66;;;25.96;59.60
63395;BME280;49531;-34.520;150.798;2023-03-02T07:00:04;100208.19;;;25.92;59.19
63395;BME280;49531;-34.520;150.798;2023-03-02T07:02:35;100206.38;;;25.88;59.41
63395;BME280;49531;-34.520;150.798;2023-03-02T07:05:03;100221.25;;;25.96;59.82
63395;BME280;49531;-34.520;150.798;2023-03-02T07:07:31;100217.41;;;25.97;59.93
63395;BME280;49531;-34.520;150.798;2023-03-02T07:09:58;100211.75;;;25.93;60.08
63395;BME280;49531;-34.520;150.798;2023-03-02T07:12:25;100226.34;;;25.88;59.96
63395;BME280;49531;-34.520;150.798;2023-03-02T07:14:52;100215.69;;;25.87;59.74
63395;BME280;49531;-34.520;150.798;2023-03-02T07:17:20;100221.91;;;25.79;59.78
63395;BME280;49531;-34.520;150.798;2023-03-02T07:19:47;100223.84;;;25.78;59.87
63395;BME280;49531;-34.520;150.798;2023-03-02T07:22:14;100223.31;;;25.76;60.04
63395;BME280;49531;-34.520;150.798;2023-03-02T07:24:41;100218.66;;;25.77;59.90
63395;BME280;49531;-34.520;150.798;2023-03-02T07:27:08;100219.78;;;25.76;59.91
63395;BME280;49531;-34.520;150.798;2023-03-02T07:29:35;100220.59;;;25.63;60.46
63395;BME280;49531;-34.520;150.798;2023-03-02T07:32:02;100216.53;;;25.60;60.28
63395;BME280;49531;-34.520;150.798;2023-03-02T07:34:29;100225.25;;;25.62;60.53
63395;BME280;49531;-34.520;150.798;2023-03-02T07:36:56;100229.91;;;25.62;60.10
63395;BME280;49531;-34.520;150.798;2023-03-02T07:39:23;100231.97;;;25.56;60.24
63395;BME280;49531;-34.520;150.798;2023-03-02T07:41:50;100233.59;;;25.57;60.25
63395;BME280;49531;-34.520;150.798;2023-03-02T07:44:18;100227.31;;;25.56;59.84
63395;BME280;49531;-34.520;150.798;2023-03-02T07:46:45;100225.88;;;25.59;60.18
63395;BME280;49531;-34.520;150.798;2023-03-02T07:49:12;100223.25;;;25.54;60.00
63395;BME280;49531;-34.520;150.798;2023-03-02T07:51:39;100225.06;;;25.58;59.81
63395;BME280;49531;-34.520;150.798;2023-03-02T07:54:06;100231.34;;;25.59;59.81
63395;BME280;49531;-34.520;150.798;2023-03-02T07:56:33;100230.97;;;25.52;60.24
63395;BME280;49531;-34.520;150.798;2023-03-02T07:59:01;100243.09;;;25.46;60.42
63395;BME280;49531;-34.520;150.798;2023-03-02T08:01:28;100232.47;;;25.44;60.64
63395;BME280;49531;-34.520;150.798;2023-03-02T08:03:55;100236.13;;;25.40;60.49
63395;BME280;49531;-34.520;150.798;2023-03-02T08:06:22;100248.97;;;25.39;60.46
63395;BME280;49531;-34.520;150.798;2023-03-02T08:08:49;100252.53;;;25.40;60.35
63395;BME280;49531;-34.520;150.798;2023-03-02T08:11:17;100256.47;;;25.34;60.17
63395;BME280;49531;-34.520;150.798;2023-03-02T08:13:45;100257.06;;;25.31;60.47
63395;BME280;49531;-34.520;150.798;2023-03-02T08:16:14;100263.25;;;25.22;60.35
63395;BME280;49531;-34.520;150.798;2023-03-02T08:18:41;100261.94;;;25.20;60.68
63395;BME280;49531;-34.520;150.798;2023-03-02T08:21:12;100274.91;;;25.14;60.61
63395;BME280;49531;-34.520;150.798;2023-03-02T08:23:39;100268.94;;;25.12;60.91
63395;BME280;49531;-34.520;150.798;2023-03-02T08:26:08;100270.66;;;25.08;60.91
63395;BME280;49531;-34.520;150.798;2023-03-02T08:28:35;100265.78;;;25.05;60.99
63395;BME280;49531;-34.520;150.798;2023-03-02T08:31:03;100269.22;;;24.97;60.96
63395;BME280;49531;-34.520;150.798;2023-03-02T08:33:31;100275.47;;;24.98;61.12
63395;BME280;49531;-34.520;150.798;2023-03-02T08:36:01;100266.47;;;24.97;60.92
63395;BME280;49531;-34.520;150.798;2023-03-02T08:38:29;100270.59;;;24.94;60.82
63395;BME280;49531;-34.520;150.798;2023-03-02T08:40:56;100276.88;;;24.95;60.83
63395;BME280;49531;-34.520;150.798;2023-03-02T08:43:24;100282.72;;;24.88;61.14
63395;BME280;49531;-34.520;150.798;2023-03-02T08:45:53;100287.66;;;24.86;60.78
63395;BME280;49531;-34.520;150.798;2023-03-02T08:48:23;100287.66;;;24.86;60.85
63395;BME280;49531;-34.520;150.798;2023-03-02T08:50:59;100292.09;;;24.82;60.91
63395;BME280;49531;-34.520;150.798;2023-03-02T08:53:29;100297.88;;;24.81;60.91
63395;BME280;49531;-34.520;150.798;2023-03-02T08:55:56;100308.31;;;24.79;61.13
63395;BME280;49531;-34.520;150.798;2023-03-02T08:58:24;100305.16;;;24.72;61.48
63395;BME280;49531;-34.520;150.798;2023-03-02T09:00:51;100308.78;;;24.67;61.09
63395;BME280;49531;-34.520;150.798;2023-03-02T09:03:19;100313.50;;;24.62;61.65
63395;BME280;49531;-34.520;150.798;2023-03-02T09:05:46;100316.81;;;24.58;61.60
63395;BME280;49531;-34.520;150.798;2023-03-02T09:08:13;100325.25;;;24.62;61.49
63395;BME280;49531;-34.520;150.798;2023-03-02T09:10:40;100317.84;;;24.63;61.66
63395;BME280;49531;-34.520;150.798;2023-03-02T09:13:07;100324.13;;;24.63;61.56
63395;BME280;49531;-34.520;150.798;2023-03-02T09:15:34;100326.63;;;24.59;61.56
63395;BME280;49531;-34.520;150.798;2023-03-02T09:18:02;100327.22;;;24.56;62.08
63395;BME280;49531;-34.520;150.798;2023-03-02T09:20:29;100324.88;;;24.50;61.92
63395;BME280;49531;-34.520;150.798;2023-03-02T09:22:57;100325.47;;;24.47;62.06
63395;BME280;49531;-34.520;150.798;2023-03-02T09:25:24;100319.84;;;24.57;62.03
63395;BME280;49531;-34.520;150.798;2023-03-02T09:27:51;100327.59;;;24.69;61.65
63395;BME280;49531;-34.520;150.798;2023-03-02T09:30:18;100338.94;;;24.76;61.04
63395;BME280;49531;-34.520;150.798;2023-03-02T09:32:45;100333.69;;;24.79;61.08
63395;BME280;49531;-34.520;150.798;2023-03-02T09:35:14;100342.09;;;24.83;60.77
63395;BME280;49531;-34.520;150.798;2023-03-02T09:37:41;100348.06;;;24.85;60.74
63395;BME280;49531;-34.520;150.798;2023-03-02T09:40:17;100350.22;;;24.88;60.67
63395;BME280;49531;-34.520;150.798;2023-03-02T09:42:57;100349.09;;;24.89;60.64
63395;BME280;49531;-34.520;150.798;2023-03-02T09:45:38;100347.69;;;24.91;60.71
63395;BME280;49531;-34.520;150.798;2023-03-02T09:48:16;100358.31;;;24.93;60.43
63395;BME280;49531;-34.520;150.798;2023-03-02T09:51:11;100359.13;;;24.93;60.22
63395;BME280;49531;-34.520;150.798;2023-03-02T09:53:59;100371.41;;;24.96;60.20
63395;BME280;49531;-34.520;150.798;2023-03-02T09:56:27;100368.38;;;24.98;59.83
63395;BME280;49531;-34.520;150.798;2023-03-02T09:59:02;100369.72;;;25.00;60.13
63395;BME280;49531;-34.520;150.798;2023-03-02T10:01:47;100371.94;;;24.98;59.83
63395;BME280;49531;-34.520;150.798;2023-03-02T10:04:23;100371.34;;;25.01;59.68
63395;BME280;49531;-34.520;150.798;2023-03-02T10:06:56;100381.16;;;25.02;59.92
63395;BME280;49531;-34.520;150.798;2023-03-02T10:09:24;100385.00;;;25.01;59.65
63395;BME280;49531;-34.520;150.798;2023-03-02T10:12:07;100383.06;;;25.02;60.13
63395;BME280;49531;-34.520;150.798;2023-03-02T10:14:43;100385.00;;;25.01;59.78
63395;BME280;49531;-34.520;150.798;2023-03-02T10:17:42;100383.88;;;25.02;59.75
63395;BME280;49531;-34.520;150.798;2023-03-02T10:20:29;100383.88;;;25.02;60.16
63395;BME280;49531;-34.520;150.798;2023-03-02T10:23:11;100383.06;;;25.02;60.37
63395;BME280;49531;-34.520;150.798;2023-03-02T10:25:47;100397.56;;;25.02;60.08
63395;BME280;49531;-34.520;150.798;2023-03-02T10:28:21;100409.28;;;25.03;60.19
63395;BME280;49531;-34.520;150.798;2023-03-02T10:30:57;100408.47;;;25.02;59.39
63395;BME280;49531;-34.520;150.798;2023-03-02T10:33:27;100413.94;;;25.02;59.52
63395;BME280;49531;-34.520;150.798;2023-03-02T10:35:54;100413.94;;;25.02;59.41
63395;BME280;49531;-34.520;150.798;2023-03-02T10:38:23;100421.34;;;25.02;59.38
63395;BME280;49531;-34.520;150.798;2023-03-02T10:41:02;100422.97;;;25.03;59.29
63395;BME280;49531;-34.520;150.798;2023-03-02T10:43:39;100424.88;;;25.02;59.47
63395;BME280;49531;-34.520;150.798;2023-03-02T10:46:11;100424.06;;;25.02;59.37
63395;BME280;49531;-34.520;150.798;2023-03-02T10:48:55;100421.34;;;25.02;59.30
63395;BME280;49531;-34.520;150.798;2023-03-02T10:51:26;100428.72;;;25.01;59.48
63395;BME280;49531;-34.520;150.798;2023-03-02T10:54:09;100435.00;;;25.02;59.31
63395;BME280;49531;-34.520;150.798;2023-03-02T10:56:37;100430.94;;;24.99;59.08
63395;BME280;49531;-34.520;150.798;2023-03-02T11:02:01;100431.75;;;25.00;59.26
63395;BME280;49531;-34.520;150.798;2023-03-02T11:04:29;100436.41;;;24.99;59.24
63395;BME280;49531;-34.520;150.798;2023-03-02T11:07:07;100442.69;;;25.00;58.92
63395;BME280;49531;-34.520;150.798;2023-03-02T11:09:37;100442.69;;;25.00;59.12
63395;BME280;49531;-34.520;150.798;2023-03-02T11:12:13;100442.97;;;24.98;58.89
63395;BME280;49531;-34.520;150.798;2023-03-02T11:14:41;100444.09;;;24.97;58.99
63395;BME280;49531;-34.520;150.798;2023-03-02T11:17:29;100451.16;;;24.98;59.22
63395;BME280;49531;-34.520;150.798;2023-03-02T11:19:57;100451.47;;;24.97;59.21
63395;BME280;49531;-34.520;150.798;2023-03-02T11:22:37;100450.66;;;24.96;59.09
63395;BME280;49531;-34.520;150.798;2023-03-02T11:25:22;100448.19;;;24.94;58.89
63395;BME280;49531;-34.520;150.798;2023-03-02T11:27:57;100457.19;;;24.95;59.02
63395;BME280;49531;-34.520;150.798;2023-03-02T11:30:28;100461.84;;;24.94;58.93
63395;BME280;49531;-34.520;150.798;2023-03-02T11:33:06;100466.50;;;24.94;59.23
63395;BME280;49531;-34.520;150.798;2023-03-02T11:35:53;100470.34;;;24.93;59.41
63395;BME280;49531;-34.520;150.798;2023-03-02T11:38:27;100467.59;;;24.93;58.96
63395;BME280;49531;-34.520;150.798;2023-03-02T11:41:04;100467.59;;;24.93;59.03
63395;BME280;49531;-34.520;150.798;2023-03-02T11:43:36;100474.19;;;24.92;59.07
63395;BME280;49531;-34.520;150.798;2023-03-02T11:46:06;100467.09;;;24.91;59.03
63395;BME280;49531;-34.520;150.798;2023-03-02T11:48:38;100473.38;;;24.91;59.22
63395;BME280;49531;-34.520;150.798;2023-03-02T11:51:15;100478.03;;;24.91;59.01
63395;BME280;49531;-34.520;150.798;2023-03-02T11:53:55;100476.41;;;24.90;59.01
63395;BME280;49531;-34.520;150.798;2023-03-02T11:56:25;100481.84;;;24.90;59.24
63395;BME280;49531;-34.520;150.798;2023-03-02T11:58:58;100485.69;;;24.89;59.37
63395;BME280;49531;-34.520;150.798;2023-03-02T12:01:26;100481.34;;;24.88;59.29
63395;BME280;49531;-34.520;150.798;2023-03-02T12:04:05;100480.22;;;24.89;59.41
63395;BME280;49531;-34.520;150.798;2023-03-02T12:06:39;100471.53;;;24.87;59.43
63395;BME280;49531;-34.520;150.798;2023-03-02T12:09:27;100472.34;;;24.87;59.45
63395;BME280;49531;-34.520;150.798;2023-03-02T12:12:13;100473.44;;;24.86;59.30
63395;BME280;49531;-34.520;150.798;2023-03-02T12:14:41;100474.53;;;24.85;59.20
63395;BME280;49531;-34.520;150.798;2023-03-02T12:17:28;100473.75;;;24.85;59.27
63395;BME280;49531;-34.520;150.798;2023-03-02T12:20:21;100474.53;;;24.85;59.23
63395;BME280;49531;-34.520;150.798;2023-03-02T12:22:49;100472.09;;;24.84;59.43
63395;BME280;49531;-34.520;150.798;2023-03-02T12:25:34;100475.66;;;24.84;59.37
63395;BME280;49531;-34.520;150.798;2023-03-02T12:28:02;100472.09;;;24.84;59.37
63395;BME280;49531;-34.520;150.798;2023-03-02T12:30:29;100471.28;;;24.83;59.36
63395;BME280;49531;-34.520;150.798;2023-03-02T12:33:01;100465.03;;;24.83;59.53
63395;BME280;49531;-34.520;150.798;2023-03-02T12:35:32;100471.59;;;24.82;59.23
63395;BME280;49531;-34.520;150.798;2023-03-02T12:38:27;100461.78;;;24.81;59.26
63395;BME280;49531;-34.520;150.798;2023-03-02T12:41:15;100457.41;;;24.80;59.49
63395;BME280;49531;-34.520;150.798;2023-03-02T12:44:15;100462.88;;;24.80;59.54